sensor_id;sensor_type;location;lat;lon;timestamp;P1;durP1;ratioP1;P2;durP2;ratioP2
33459;SDS011;19795;53.160;6.612;2022-11-27T00:01:41;60.10;;;55.70;;
33459;SDS011;19795;53.160;6.612;2022-11-27T00:04:07;60.35;;;55.97;;
33459;SDS011;19795;53.160;6.612;2022-11-27T00:06:35;56.15;;;51.95;;
33459;SDS011;19795;53.160;6.612;2022-11-27T00:09:03;50.88;;;46.67;;
33459;SDS011;19795;53.160;6.612;2022-11-27T00:11:31;53.47;;;48.83;;
33459;SDS011;19795;53.160;6.612;2022-11-27T00:13:57;49.92;;;46.30;;
33459;SDS011;19795;53.160;6.612;2022-11-27T00:16:24;35.35;;;32.15;;
33459;SDS011;19795;53.160;6.612;2022-11-27T00:18:50;34.13;;;31.00;;
33459;SDS011;19795;53.160;6.612;2022-11-27T00:21:21;33.97;;;30.33;;
33459;SDS011;19795;53.160;6.612;2022-11-27T00:23:49;29.92;;;27.10;;
33459;SDS011;19795;53.160;6.612;2022-11-27T00:26:15;28.38;;;26.02;;
33459;SDS011;19795;53.160;6.612;2022-11-27T00:28:41;41.08;;;37.72;;
33459;SDS011;19795;53.160;6.612;2022-11-27T00:31:10;37.33;;;34.13;;
33459;SDS011;19795;53.160;6.612;2022-11-27T00:33:41;34.13;;;31.20;;
33459;SDS011;19795;53.160;6.612;2022-11-27T00:36:07;32.75;;;29.52;;
33459;SDS011;19795;53.160;6.612;2022-11-27T00:38:33;30.15;;;27.52;;
33459;SDS011;19795;53.160;6.612;2022-11-27T00:41:10;28.98;;;26.67;;
33459;SDS011;19795;53.160;6.612;2022-11-27T00:43:39;29.83;;;26.90;;
33459;SDS011;19795;53.160;6.612;2022-11-27T00:46:04;22.73;;;20.55;;
33459;SDS011;19795;53.160;6.612;2022-11-27T00:48:30;20.20;;;16.00;;
33459;SDS011;19795;53.160;6.612;2022-11-27T00:50:57;19.38;;;17.40;;
33459;SDS011;19795;53.160;6.612;2022-11-27T00:53:27;17.98;;;16.20;;
33459;SDS011;19795;53.160;6.612;2022-11-27T00:55:54;25.98;;;23.35;;
33459;SDS011;19795;53.160;6.612;2022-11-27T00:58:20;24.33;;;22.17;;
33459;SDS011;19795;53.160;6.612;2022-11-27T01:00:52;24.25;;;21.83;;
33459;SDS011;19795;53.160;6.612;2022-11-27T01:03:23;16.20;;;14.68;;
33459;SDS011;19795;53.160;6.612;2022-11-27T01:05:49;19.60;;;14.13;;
33459;SDS011;19795;53.160;6.612;2022-11-27T01:08:15;17.38;;;12.95;;
33459;SDS011;19795;53.160;6.612;2022-11-27T01:11:16;21.70;;;18.52;;
33459;SDS011;19795;53.160;6.612;2022-11-27T07:30:30;9.80;;;4.10;;
33459;SDS011;19795;53.160;6.612;2022-11-27T07:32:57;7.22;;;3.40;;
33459;SDS011;19795;53.160;6.612;2022-11-27T07:35:22;7.43;;;3.38;;
33459;SDS011;19795;53.160;6.612;2022-11-27T07:37:48;9.48;;;3.70;;
33459;SDS011;19795;53.160;6.612;2022-11-27T07:40:13;9.07;;;3.97;;
33459;SDS011;19795;53.160;6.612;2022-11-27T07:42:39;12.82;;;3.35;;
33459;SDS011;19795;53.160;6.612;2022-11-27T07:45:06;8.73;;;3.85;;
33459;SDS011;19795;53.160;6.612;2022-11-27T07:47:32;9.45;;;3.90;;
33459;SDS011;19795;53.160;6.612;2022-11-27T07:49:58;8.75;;;3.75;;
33459;SDS011;19795;53.160;6.612;2022-11-27T07:52:24;13.80;;;4.05;;
33459;SDS011;19795;53.160;6.612;2022-11-27T07:54:50;12.35;;;4.40;;
33459;SDS011;19795;53.160;6.612;2022-11-27T07:57:16;11.00;;;3.80;;
33459;SDS011;19795;53.160;6.612;2022-11-27T07:59:42;11.48;;;4.75;;
33459;SDS011;19795;53.160;6.612;2022-11-27T08:02:10;14.18;;;4.82;;
33459;SDS011;19795;53.160;6.612;2022-11-27T08:04:36;10.15;;;4.18;;
33459;SDS011;19795;53.160;6.612;2022-11-27T08:07:02;11.20;;;4.82;;
33459;SDS011;19795;53.160;6.612;2022-11-27T08:09:28;8.25;;;3.67;;
33459;SDS011;19795;53.160;6.612;2022-11-27T08:11:54;10.68;;;4.45;;
33459;SDS011;19795;53.160;6.612;2022-11-27T08:14:20;9.63;;;4.35;;
33459;SDS011;19795;53.160;6.612;2022-11-27T08:16:45;9.93;;;4.00;;
33459;SDS011;19795;53.160;6.612;2022-11-27T08:19:11;10.15;;;4.45;;
33459;SDS011;19795;53.160;6.612;2022-11-27T08:21:37;11.93;;;4.50;;
33459;SDS011;19795;53.160;6.612;2022-11-27T08:24:03;12.27;;;4.18;;
33459;SDS011;19795;53.160;6.612;2022-11-27T08:26:28;12.93;;;4.63;;
33459;SDS011;19795;53.160;6.612;2022-11-27T08:28:54;11.35;;;4.30;;
33459;SDS011;19795;53.160;6.612;2022-11-27T08:31:20;10.60;;;3.97;;
33459;SDS011;19795;53.160;6.612;2022-11-27T08:33:46;13.60;;;4.18;;
33459;SDS011;19795;53.160;6.612;2022-11-27T08:36:12;10.80;;;4.63;;
33459;SDS011;19795;53.160;6.612;2022-11-27T08:38:37;12.40;;;4.43;;
33459;SDS011;19795;53.160;6.612;2022-11-27T08:41:04;11.52;;;4.45;;
33459;SDS011;19795;53.160;6.612;2022-11-27T08:43:30;11.32;;;4.90;;
33459;SDS011;19795;53.160;6.612;2022-11-27T08:45:57;12.07;;;4.38;;
33459;SDS011;19795;53.160;6.612;2022-11-27T08:48:23;12.57;;;4.85;;
33459;SDS011;19795;53.160;6.612;2022-11-27T08:50:49;10.02;;;4.18;;
33459;SDS011;19795;53.160;6.612;2022-11-27T08:53:15;12.90;;;4.72;;
33459;SDS011;19795;53.160;6.612;2022-11-27T08:55:41;9.68;;;4.45;;
33459;SDS011;19795;53.160;6.612;2022-11-27T08:58:07;8.65;;;4.40;;
33459;SDS011;19795;53.160;6.612;2022-11-27T09:00:33;12.45;;;4.53;;
33459;SDS011;19795;53.160;6.612;2022-11-27T09:03:00;11.57;;;4.65;;
33459;SDS011;19795;53.160;6.612;2022-11-27T09:05:26;9.65;;;4.60;;
33459;SDS011;19795;53.160;6.612;2022-11-27T09:07:53;11.63;;;4.30;;
33459;SDS011;19795;53.160;6.612;2022-11-27T09:10:19;9.25;;;4.47;;
33459;SDS011;19795;53.160;6.612;2022-11-27T09:12:45;11.63;;;4.88;;
33459;SDS011;19795;53.160;6.612;2022-11-27T09:15:12;12.38;;;4.88;;
33459;SDS011;19795;53.160;6.612;2022-11-27T09:17:37;11.05;;;4.50;;
33459;SDS011;19795;53.160;6.612;2022-11-27T09:20:04;11.52;;;4.40;;
33459;SDS011;19795;53.160;6.612;2022-11-27T09:22:30;12.07;;;4.38;;
33459;SDS011;19795;53.160;6.612;2022-11-27T09:24:57;10.18;;;5.57;;
33459;SDS011;19795;53.160;6.612;2022-11-27T09:27:23;12.52;;;5.18;;
33459;SDS011;19795;53.160;6.612;2022-11-27T09:29:48;9.38;;;4.72;;
33459;SDS011;19795;53.160;6.612;2022-11-27T09:32:14;12.93;;;4.90;;
33459;SDS011;19795;53.160;6.612;2022-11-27T09:34:40;15.68;;;5.05;;
33459;SDS011;19795;53.160;6.612;2022-11-27T09:37:06;13.15;;;4.85;;
33459;SDS011;19795;53.160;6.612;2022-11-27T09:39:32;13.05;;;5.22;;
33459;SDS011;19795;53.160;6.612;2022-11-27T09:41:59;11.55;;;4.63;;
33459;SDS011;19795;53.160;6.612;2022-11-27T09:44:36;12.18;;;5.25;;
33459;SDS011;19795;53.160;6.612;2022-11-27T09:50:02;10.68;;;4.78;;
33459;SDS011;19795;53.160;6.612;2022-11-27T09:52:57;10.70;;;4.53;;
33459;SDS011;19795;53.160;6.612;2022-11-27T09:55:36;11.13;;;5.05;;
33459;SDS011;19795;53.160;6.612;2022-11-27T09:58:19;12.90;;;4.95;;
33459;SDS011;19795;53.160;6.612;2022-11-27T10:01:14;10.65;;;4.88;;
33459;SDS011;19795;53.160;6.612;2022-11-27T10:03:42;11.93;;;4.90;;
33459;SDS011;19795;53.160;6.612;2022-11-27T10:06:27;12.77;;;4.20;;
33459;SDS011;19795;53.160;6.612;2022-11-27T10:17:34;10.23;;;5.13;;
33459;SDS011;19795;53.160;6.612;2022-11-27T10:20:33;12.05;;;5.18;;
33459;SDS011;19795;53.160;6.612;2022-11-27T10:25:58;12.00;;;5.13;;
33459;SDS011;19795;53.160;6.612;2022-11-27T10:31:15;12.70;;;5.32;;
33459;SDS011;19795;53.160;6.612;2022-11-27T10:34:01;15.77;;;5.32;;
33459;SDS011;19795;53.160;6.612;2022-11-27T10:36:43;12.23;;;5.13;;
33459;SDS011;19795;53.160;6.612;2022-11-27T10:39:13;7.45;;;4.38;;
33459;SDS011;19795;53.160;6.612;2022-11-27T10:42:26;13.15;;;5.55;;
33459;SDS011;19795;53.160;6.612;2022-11-27T10:44:58;11.60;;;4.75;;
33459;SDS011;19795;53.160;6.612;2022-11-27T10:47:27;9.10;;;4.85;;
33459;SDS011;19795;53.160;6.612;2022-11-27T10:49:54;12.60;;;5.15;;
33459;SDS011;19795;53.160;6.612;2022-11-27T10:52:21;12.65;;;5.53;;
33459;SDS011;19795;53.160;6.612;2022-11-27T10:54:55;14.30;;;5.32;;
33459;SDS011;19795;53.160;6.612;2022-11-27T11:00:09;10.40;;;4.82;;
33459;SDS011;19795;53.160;6.612;2022-11-27T11:02:39;10.90;;;5.32;;
33459;SDS011;19795;53.160;6.612;2022-11-27T11:05:38;9.68;;;5.28;;
33459;SDS011;19795;53.160;6.612;2022-11-27T11:11:04;11.60;;;5.28;;
33459;SDS011;19795;53.160;6.612;2022-11-27T11:14:03;10.82;;;5.35;;
33459;SDS011;19795;53.160;6.612;2022-11-27T11:18:43;10.15;;;4.90;;
33459;SDS011;19795;53.160;6.612;2022-11-27T11:21:37;10.35;;;5.53;;
33459;SDS011;19795;53.160;6.612;2022-11-27T11:26:39;12.35;;;5.20;;
33459;SDS011;19795;53.160;6.612;2022-11-27T11:29:32;9.93;;;5.40;;
33459;SDS011;19795;53.160;6.612;2022-11-27T11:32:02;9.88;;;5.55;;
33459;SDS011;19795;53.160;6.612;2022-11-27T11:34:52;10.10;;;5.80;;
33459;SDS011;19795;53.160;6.612;2022-11-27T11:39:58;13.50;;;5.75;;
33459;SDS011;19795;53.160;6.612;2022-11-27T11:42:31;13.25;;;6.22;;
33459;SDS011;19795;53.160;6.612;2022-11-27T11:45:01;13.38;;;5.00;;
33459;SDS011;19795;53.160;6.612;2022-11-27T11:47:43;10.65;;;5.60;;
33459;SDS011;19795;53.160;6.612;2022-11-27T11:50:15;11.57;;;4.95;;
33459;SDS011;19795;53.160;6.612;2022-11-27T11:55:42;9.75;;;5.72;;
33459;SDS011;19795;53.160;6.612;2022-11-27T12:26:09;9.27;;;4.93;;
33459;SDS011;19795;53.160;6.612;2022-11-27T12:31:52;11.40;;;4.93;;
33459;SDS011;19795;53.160;6.612;2022-11-27T12:34:43;9.75;;;5.43;;
33459;SDS011;19795;53.160;6.612;2022-11-27T12:37:33;9.68;;;5.05;;
33459;SDS011;19795;53.160;6.612;2022-11-27T12:40:21;9.18;;;5.40;;
33459;SDS011;19795;53.160;6.612;2022-11-27T12:45:42;7.40;;;4.43;;
33459;SDS011;19795;53.160;6.612;2022-11-27T12:48:18;8.85;;;4.78;;
33459;SDS011;19795;53.160;6.612;2022-11-27T12:50:53;9.15;;;4.93;;
33459;SDS011;19795;53.160;6.612;2022-11-27T12:53:41;9.75;;;4.95;;
33459;SDS011;19795;53.160;6.612;2022-11-27T12:56:19;9.98;;;5.50;;
33459;SDS011;19795;53.160;6.612;2022-11-27T12:59:01;9.80;;;5.25;;
33459;SDS011;19795;53.160;6.612;2022-11-27T13:02:20;10.77;;;4.90;;
33459;SDS011;19795;53.160;6.612;2022-11-27T13:08:13;10.15;;;5.10;;
33459;SDS011;19795;53.160;6.612;2022-11-27T13:10:46;11.40;;;5.07;;
33459;SDS011;19795;53.160;6.612;2022-11-27T13:15:53;8.23;;;4.03;;
33459;SDS011;19795;53.160;6.612;2022-11-27T13:21:14;12.85;;;5.53;;
33459;SDS011;19795;53.160;6.612;2022-11-27T13:23:44;12.68;;;5.38;;
33459;SDS011;19795;53.160;6.612;2022-11-27T13:26:14;8.73;;;5.22;;
33459;SDS011;19795;53.160;6.612;2022-11-27T13:28:45;8.52;;;5.15;;
33459;SDS011;19795;53.160;6.612;2022-11-27T13:31:19;6.50;;;4.20;;
33459;SDS011;19795;53.160;6.612;2022-11-27T13:33:48;8.73;;;4.95;;
33459;SDS011;19795;53.160;6.612;2022-11-27T13:36:25;9.43;;;5.10;;
33459;SDS011;19795;53.160;6.612;2022-11-27T13:38:58;9.73;;;4.75;;
33459;SDS011;19795;53.160;6.612;2022-11-27T13:41:36;8.63;;;4.82;;
33459;SDS011;19795;53.160;6.612;2022-11-27T13:44:04;8.80;;;5.20;;
33459;SDS011;19795;53.160;6.612;2022-11-27T13:47:09;7.32;;;4.43;;
33459;SDS011;19795;53.160;6.612;2022-11-27T13:49:38;8.32;;;4.90;;
33459;SDS011;19795;53.160;6.612;2022-11-27T13:57:22;7.95;;;5.05;;
33459;SDS011;19795;53.160;6.612;2022-11-27T14:02:38;8.15;;;4.85;;
33459;SDS011;19795;53.160;6.612;2022-11-27T14:05:09;7.22;;;4.90;;
33459;SDS011;19795;53.160;6.612;2022-11-27T14:07:41;9.45;;;4.80;;
33459;SDS011;19795;53.160;6.612;2022-11-27T14:10:14;8.50;;;5.22;;
33459;SDS011;19795;53.160;6.612;2022-11-27T14:12:50;8.23;;;5.00;;
33459;SDS011;19795;53.160;6.612;2022-11-27T14:15:22;8.80;;;5.30;;
33459;SDS011;19795;53.160;6.612;2022-11-27T14:17:50;12.00;;;5.50;;
33459;SDS011;19795;53.160;6.612;2022-11-27T14:20:20;9.73;;;5.07;;
33459;SDS011;19795;53.160;6.612;2022-11-27T14:22:56;10.18;;;5.45;;
33459;SDS011;19795;53.160;6.612;2022-11-27T14:25:27;8.73;;;4.90;;
33459;SDS011;19795;53.160;6.612;2022-11-27T14:28:19;7.93;;;5.28;;
33459;SDS011;19795;53.160;6.612;2022-11-27T14:30:55;8.07;;;5.38;;
33459;SDS011;19795;53.160;6.612;2022-11-27T14:33:24;8.68;;;4.95;;
33459;SDS011;19795;53.160;6.612;2022-11-27T14:35:53;9.65;;;4.70;;
33459;SDS011;19795;53.160;6.612;2022-11-27T14:38:20;9.55;;;5.20;;
33459;SDS011;19795;53.160;6.612;2022-11-27T14:40:47;9.38;;;5.07;;
33459;SDS011;19795;53.160;6.612;2022-11-27T14:43:15;7.93;;;4.38;;
33459;SDS011;19795;53.160;6.612;2022-11-27T14:45:43;9.63;;;4.63;;
33459;SDS011;19795;53.160;6.612;2022-11-27T14:48:18;10.95;;;5.43;;
33459;SDS011;19795;53.160;6.612;2022-11-27T14:50:47;11.48;;;5.00;;
33459;SDS011;19795;53.160;6.612;2022-11-27T14:53:14;7.18;;;4.88;;
33459;SDS011;19795;53.160;6.612;2022-11-27T14:55:40;9.23;;;5.38;;
33459;SDS011;19795;53.160;6.612;2022-11-27T14:58:13;8.80;;;4.85;;
33459;SDS011;19795;53.160;6.612;2022-11-27T15:00:57;8.73;;;5.35;;
33459;SDS011;19795;53.160;6.612;2022-11-27T15:03:28;9.20;;;5.22;;
33459;SDS011;19795;53.160;6.612;2022-11-27T15:06:02;7.50;;;5.30;;
33459;SDS011;19795;53.160;6.612;2022-11-27T15:08:32;8.98;;;5.22;;
33459;SDS011;19795;53.160;6.612;2022-11-27T15:11:00;9.32;;;5.53;;
33459;SDS011;19795;53.160;6.612;2022-11-27T15:13:29;8.48;;;5.00;;
33459;SDS011;19795;53.160;6.612;2022-11-27T15:15:59;9.95;;;5.32;;
33459;SDS011;19795;53.160;6.612;2022-11-27T15:18:29;9.02;;;5.25;;
33459;SDS011;19795;53.160;6.612;2022-11-27T15:20:58;9.18;;;5.60;;
33459;SDS011;19795;53.160;6.612;2022-11-27T15:23:29;8.60;;;5.35;;
33459;SDS011;19795;53.160;6.612;2022-11-27T15:31:27;11.40;;;5.83;;
33459;SDS011;19795;53.160;6.612;2022-11-27T15:36:46;8.65;;;5.68;;
33459;SDS011;19795;53.160;6.612;2022-11-27T15:39:20;8.65;;;5.70;;
33459;SDS011;19795;53.160;6.612;2022-11-27T15:42:00;9.73;;;6.07;;
33459;SDS011;19795;53.160;6.612;2022-11-27T15:44:30;11.73;;;6.63;;
33459;SDS011;19795;53.160;6.612;2022-11-27T15:46:57;10.93;;;6.40;;
33459;SDS011;19795;53.160;6.612;2022-11-27T15:49:25;10.27;;;6.88;;
33459;SDS011;19795;53.160;6.612;2022-11-27T15:51:51;11.25;;;6.20;;
33459;SDS011;19795;53.160;6.612;2022-11-27T15:54:18;11.50;;;6.95;;
33459;SDS011;19795;53.160;6.612;2022-11-27T15:56:44;11.55;;;7.07;;
33459;SDS011;19795;53.160;6.612;2022-11-27T15:59:11;12.15;;;7.28;;
33459;SDS011;19795;53.160;6.612;2022-11-27T16:01:36;11.23;;;6.93;;
33459;SDS011;19795;53.160;6.612;2022-11-27T16:04:02;12.50;;;6.45;;
33459;SDS011;19795;53.160;6.612;2022-11-27T16:06:28;10.93;;;6.50;;
33459;SDS011;19795;53.160;6.612;2022-11-27T16:08:57;12.60;;;6.55;;
33459;SDS011;19795;53.160;6.612;2022-11-27T16:11:25;12.25;;;6.55;;
33459;SDS011;19795;53.160;6.612;2022-11-27T16:13:51;10.70;;;6.50;;
33459;SDS011;19795;53.160;6.612;2022-11-27T16:16:17;11.73;;;6.70;;
33459;SDS011;19795;53.160;6.612;2022-11-27T16:18:43;10.82;;;6.00;;
33459;SDS011;19795;53.160;6.612;2022-11-27T16:21:10;11.40;;;6.78;;
33459;SDS011;19795;53.160;6.612;2022-11-27T16:23:37;11.32;;;7.43;;
33459;SDS011;19795;53.160;6.612;2022-11-27T16:26:05;12.32;;;6.68;;
33459;SDS011;19795;53.160;6.612;2022-11-27T16:28:31;10.32;;;6.63;;
33459;SDS011;19795;53.160;6.612;2022-11-27T16:30:59;10.48;;;6.45;;
33459;SDS011;19795;53.160;6.612;2022-11-27T16:33:26;12.02;;;6.43;;
33459;SDS011;19795;53.160;6.612;2022-11-27T16:35:53;11.32;;;6.38;;
33459;SDS011;19795;53.160;6.612;2022-11-27T16:38:19;10.40;;;7.05;;
33459;SDS011;19795;53.160;6.612;2022-11-27T16:40:46;10.35;;;6.63;;
33459;SDS011;19795;53.160;6.612;2022-11-27T16:43:12;10.23;;;6.25;;
33459;SDS011;19795;53.160;6.612;2022-11-27T16:45:38;10.07;;;6.35;;
33459;SDS011;19795;53.160;6.612;2022-11-27T16:48:04;10.52;;;6.30;;
33459;SDS011;19795;53.160;6.612;2022-11-27T16:50:30;10.25;;;6.82;;
33459;SDS011;19795;53.160;6.612;2022-11-27T16:52:56;8.40;;;5.88;;
33459;SDS011;19795;53.160;6.612;2022-11-27T16:55:22;8.27;;;5.50;;
33459;SDS011;19795;53.160;6.612;2022-11-27T16:57:47;10.73;;;6.38;;
33459;SDS011;19795;53.160;6.612;2022-11-27T17:00:13;8.77;;;5.40;;
33459;SDS011;19795;53.160;6.612;2022-11-27T17:02:39;8.55;;;6.03;;
33459;SDS011;19795;53.160;6.612;2022-11-27T17:05:05;9.35;;;6.05;;
33459;SDS011;19795;53.160;6.612;2022-11-27T17:07:31;9.65;;;6.30;;
33459;SDS011;19795;53.160;6.612;2022-11-27T17:09:57;9.15;;;6.75;;
33459;SDS011;19795;53.160;6.612;2022-11-27T17:12:23;9.65;;;6.45;;
33459;SDS011;19795;53.160;6.612;2022-11-27T17:14:48;10.02;;;7.28;;
33459;SDS011;19795;53.160;6.612;2022-11-27T17:17:14;8.57;;;6.78;;
33459;SDS011;19795;53.160;6.612;2022-11-27T17:19:39;9.55;;;7.18;;
33459;SDS011;19795;53.160;6.612;2022-11-27T17:22:05;10.25;;;7.20;;
33459;SDS011;19795;53.160;6.612;2022-11-27T17:24:31;11.57;;;6.78;;
33459;SDS011;19795;53.160;6.612;2022-11-27T17:26:59;11.52;;;6.88;;
33459;SDS011;19795;53.160;6.612;2022-11-27T17:29:25;10.38;;;7.70;;
33459;SDS011;19795;53.160;6.612;2022-11-27T17:31:51;9.73;;;6.95;;
33459;SDS011;19795;53.160;6.612;2022-11-27T17:34:17;10.18;;;7.25;;
33459;SDS011;19795;53.160;6.612;2022-11-27T17:36:45;11.80;;;7.55;;
33459;SDS011;19795;53.160;6.612;2022-11-27T17:39:14;10.73;;;7.07;;
33459;SDS011;19795;53.160;6.612;2022-11-27T17:41:40;9.98;;;6.78;;
33459;SDS011;19795;53.160;6.612;2022-11-27T17:44:08;14.85;;;8.15;;
33459;SDS011;19795;53.160;6.612;2022-11-27T17:46:34;11.43;;;6.95;;
33459;SDS011;19795;53.160;6.612;2022-11-27T17:49:00;11.20;;;6.95;;
33459;SDS011;19795;53.160;6.612;2022-11-27T17:51:30;9.95;;;7.10;;
33459;SDS011;19795;53.160;6.612;2022-11-27T17:53:57;10.30;;;6.78;;
33459;SDS011;19795;53.160;6.612;2022-11-27T17:56:25;12.48;;;6.38;;
33459;SDS011;19795;53.160;6.612;2022-11-27T17:58:51;9.30;;;6.65;;
33459;SDS011;19795;53.160;6.612;2022-11-27T18:01:18;9.55;;;6.13;;
33459;SDS011;19795;53.160;6.612;2022-11-27T18:03:48;8.68;;;6.25;;
33459;SDS011;19795;53.160;6.612;2022-11-27T18:06:15;9.50;;;5.90;;
33459;SDS011;19795;53.160;6.612;2022-11-27T18:08:43;10.75;;;6.85;;
33459;SDS011;19795;53.160;6.612;2022-11-27T18:11:11;11.95;;;6.65;;
33459;SDS011;19795;53.160;6.612;2022-11-27T18:13:39;9.05;;;6.57;;
33459;SDS011;19795;53.160;6.612;2022-11-27T18:16:11;7.65;;;5.90;;
33459;SDS011;19795;53.160;6.612;2022-11-27T18:18:43;8.80;;;6.05;;
33459;SDS011;19795;53.160;6.612;2022-11-27T18:21:13;10.60;;;6.53;;
33459;SDS011;19795;53.160;6.612;2022-11-27T18:23:40;9.70;;;6.28;;
33459;SDS011;19795;53.160;6.612;2022-11-27T18:26:17;9.63;;;6.50;;
33459;SDS011;19795;53.160;6.612;2022-11-27T18:28:44;9.38;;;6.03;;
33459;SDS011;19795;53.160;6.612;2022-11-27T18:31:16;8.38;;;6.63;;
33459;SDS011;19795;53.160;6.612;2022-11-27T18:33:43;10.13;;;7.10;;
33459;SDS011;19795;53.160;6.612;2022-11-27T18:36:10;11.23;;;7.63;;
33459;SDS011;19795;53.160;6.612;2022-11-27T18:38:38;10.75;;;6.80;;
33459;SDS011;19795;53.160;6.612;2022-11-27T18:41:18;9.18;;;6.72;;
33459;SDS011;19795;53.160;6.612;2022-11-27T18:43:47;10.77;;;6.00;;
33459;SDS011;19795;53.160;6.612;2022-11-27T18:46:14;10.35;;;7.03;;
33459;SDS011;19795;53.160;6.612;2022-11-27T18:48:43;8.55;;;6.07;;
33459;SDS011;19795;53.160;6.612;2022-11-27T18:51:12;9.13;;;6.30;;
33459;SDS011;19795;53.160;6.612;2022-11-27T18:53:48;11.50;;;6.57;;
33459;SDS011;19795;53.160;6.612;2022-11-27T18:56:16;9.25;;;6.43;;
33459;SDS011;19795;53.160;6.612;2022-11-27T18:58:46;9.52;;;7.07;;
33459;SDS011;19795;53.160;6.612;2022-11-27T19:01:15;8.90;;;6.20;;
33459;SDS011;19795;53.160;6.612;2022-11-27T19:03:41;11.15;;;7.00;;
33459;SDS011;19795;53.160;6.612;2022-11-27T19:06:08;9.00;;;5.95;;
33459;SDS011;19795;53.160;6.612;2022-11-27T19:08:35;10.60;;;6.60;;
33459;SDS011;19795;53.160;6.612;2022-11-27T19:11:05;10.18;;;6.43;;
33459;SDS011;19795;53.160;6.612;2022-11-27T19:13:33;10.55;;;6.60;;
33459;SDS011;19795;53.160;6.612;2022-11-27T19:16:02;9.23;;;6.53;;
33459;SDS011;19795;53.160;6.612;2022-11-27T19:18:33;11.30;;;7.35;;
33459;SDS011;19795;53.160;6.612;2022-11-27T19:21:00;10.77;;;6.70;;
33459;SDS011;19795;53.160;6.612;2022-11-27T19:23:37;9.98;;;6.55;;
33459;SDS011;19795;53.160;6.612;2022-11-27T19:26:09;8.25;;;6.80;;
33459;SDS011;19795;53.160;6.612;2022-11-27T19:28:39;9.75;;;6.63;;
33459;SDS011;19795;53.160;6.612;2022-11-27T19:31:07;8.98;;;6.22;;
33459;SDS011;19795;53.160;6.612;2022-11-27T19:33:35;9.95;;;6.70;;
33459;SDS011;19795;53.160;6.612;2022-11-27T19:36:05;9.95;;;6.05;;
33459;SDS011;19795;53.160;6.612;2022-11-27T19:38:34;10.65;;;6.90;;
33459;SDS011;19795;53.160;6.612;2022-11-27T19:41:00;9.13;;;5.75;;
33459;SDS011;19795;53.160;6.612;2022-11-27T19:43:27;8.52;;;5.90;;
33459;SDS011;19795;53.160;6.612;2022-11-27T19:45:52;9.40;;;5.68;;
33459;SDS011;19795;53.160;6.612;2022-11-27T19:48:18;9.70;;;5.88;;
33459;SDS011;19795;53.160;6.612;2022-11-27T19:50:44;10.80;;;5.32;;
33459;SDS011;19795;53.160;6.612;2022-11-27T19:53:10;7.97;;;5.57;;
33459;SDS011;19795;53.160;6.612;2022-11-27T19:55:36;8.60;;;5.63;;
33459;SDS011;19795;53.160;6.612;2022-11-27T19:58:01;9.13;;;5.82;;
33459;SDS011;19795;53.160;6.612;2022-11-27T20:00:27;9.27;;;6.25;;
33459;SDS011;19795;53.160;6.612;2022-11-27T20:02:53;9.38;;;6.63;;
33459;SDS011;19795;53.160;6.612;2022-11-27T20:05:18;10.25;;;7.28;;
33459;SDS011;19795;53.160;6.612;2022-11-27T20:07:44;11.32;;;7.60;;
33459;SDS011;19795;53.160;6.612;2022-11-27T20:10:11;11.63;;;8.30;;
33459;SDS011;19795;53.160;6.612;2022-11-27T20:12:36;14.82;;;7.70;;
33459;SDS011;19795;53.160;6.612;2022-11-27T20:15:03;11.77;;;7.88;;
33459;SDS011;19795;53.160;6.612;2022-11-27T20:17:31;9.63;;;6.90;;
33459;SDS011;19795;53.160;6.612;2022-11-27T20:19:57;9.48;;;7.25;;
33459;SDS011;19795;53.160;6.612;2022-11-27T20:22:24;11.52;;;7.45;;
33459;SDS011;19795;53.160;6.612;2022-11-27T20:24:53;9.80;;;7.47;;
33459;SDS011;19795;53.160;6.612;2022-11-27T20:27:18;11.05;;;7.18;;
33459;SDS011;19795;53.160;6.612;2022-11-27T20:29:44;14.55;;;7.38;;
33459;SDS011;19795;53.160;6.612;2022-11-27T20:32:10;10.55;;;7.28;;
33459;SDS011;19795;53.160;6.612;2022-11-27T20:34:36;9.45;;;6.93;;
33459;SDS011;19795;53.160;6.612;2022-11-27T20:37:01;9.65;;;7.30;;
33459;SDS011;19795;53.160;6.612;2022-11-27T20:39:27;8.15;;;6.78;;
33459;SDS011;19795;53.160;6.612;2022-11-27T20:41:53;8.48;;;6.93;;
33459;SDS011;19795;53.160;6.612;2022-11-27T20:44:19;9.38;;;6.82;;
33459;SDS011;19795;53.160;6.612;2022-11-27T20:46:46;10.93;;;7.47;;
33459;SDS011;19795;53.160;6.612;2022-11-27T20:49:13;10.15;;;7.03;;
33459;SDS011;19795;53.160;6.612;2022-11-27T20:51:40;10.18;;;7.57;;
33459;SDS011;19795;53.160;6.612;2022-11-27T20:54:06;10.30;;;7.13;;
33459;SDS011;19795;53.160;6.612;2022-11-27T20:56:33;11.52;;;7.30;;
33459;SDS011;19795;53.160;6.612;2022-11-27T20:58:59;11.98;;;7.63;;
33459;SDS011;19795;53.160;6.612;2022-11-27T21:03:51;10.05;;;7.55;;
33459;SDS011;19795;53.160;6.612;2022-11-27T21:06:18;10.25;;;7.15;;
33459;SDS011;19795;53.160;6.612;2022-11-27T21:08:46;11.00;;;8.07;;
33459;SDS011;19795;53.160;6.612;2022-11-27T21:11:14;10.52;;;8.00;;
33459;SDS011;19795;53.160;6.612;2022-11-27T21:13:42;11.35;;;8.57;;
33459;SDS011;19795;53.160;6.612;2022-11-27T21:16:09;10.32;;;7.65;;
33459;SDS011;19795;53.160;6.612;2022-11-27T21:18:36;9.60;;;8.18;;
33459;SDS011;19795;53.160;6.612;2022-11-27T21:21:06;9.80;;;8.18;;
33459;SDS011;19795;53.160;6.612;2022-11-27T21:23:38;10.90;;;8.30;;
33459;SDS011;19795;53.160;6.612;2022-11-27T21:26:05;9.95;;;8.55;;
33459;SDS011;19795;53.160;6.612;2022-11-27T21:28:31;10.80;;;8.18;;
33459;SDS011;19795;53.160;6.612;2022-11-27T21:31:08;12.63;;;9.05;;
33459;SDS011;19795;53.160;6.612;2022-11-27T21:33:41;10.52;;;8.65;;
33459;SDS011;19795;53.160;6.612;2022-11-27T21:36:11;10.35;;;8.55;;
33459;SDS011;19795;53.160;6.612;2022-11-27T21:38:37;10.75;;;8.98;;
33459;SDS011;19795;53.160;6.612;2022-11-27T21:41:03;9.93;;;8.52;;
33459;SDS011;19795;53.160;6.612;2022-11-27T21:43:29;11.00;;;8.45;;
33459;SDS011;19795;53.160;6.612;2022-11-27T21:46:03;11.20;;;8.85;;
33459;SDS011;19795;53.160;6.612;2022-11-27T21:48:33;13.63;;;9.77;;
33459;SDS011;19795;53.160;6.612;2022-11-27T21:51:02;10.95;;;9.32;;
33459;SDS011;19795;53.160;6.612;2022-11-27T21:53:29;11.18;;;9.27;;
33459;SDS011;19795;53.160;6.612;2022-11-27T21:55:55;12.30;;;9.05;;
33459;SDS011;19795;53.160;6.612;2022-11-27T21:58:21;12.00;;;9.40;;
33459;SDS011;19795;53.160;6.612;2022-11-27T22:00:50;12.70;;;8.93;;
33459;SDS011;19795;53.160;6.612;2022-11-27T22:03:16;12.35;;;9.38;;
33459;SDS011;19795;53.160;6.612;2022-11-27T22:05:41;12.70;;;10.05;;
33459;SDS011;19795;53.160;6.612;2022-11-27T22:08:07;12.25;;;9.30;;
33459;SDS011;19795;53.160;6.612;2022-11-27T22:10:32;14.68;;;10.07;;
33459;SDS011;19795;53.160;6.612;2022-11-27T22:12:58;11.02;;;9.45;;
33459;SDS011;19795;53.160;6.612;2022-11-27T22:15:24;12.32;;;9.98;;
33459;SDS011;19795;53.160;6.612;2022-11-27T22:17:49;11.52;;;9.48;;
33459;SDS011;19795;53.160;6.612;2022-11-27T22:20:15;11.93;;;9.23;;
33459;SDS011;19795;53.160;6.612;2022-11-27T22:22:41;12.95;;;9.95;;
33459;SDS011;19795;53.160;6.612;2022-11-27T22:25:07;13.10;;;10.02;;
33459;SDS011;19795;53.160;6.612;2022-11-27T22:27:33;10.45;;;9.27;;
33459;SDS011;19795;53.160;6.612;2022-11-27T22:29:58;10.32;;;8.95;;
33459;SDS011;19795;53.160;6.612;2022-11-27T22:32:24;12.38;;;10.32;;
33459;SDS011;19795;53.160;6.612;2022-11-27T22:34:50;12.95;;;9.80;;
33459;SDS011;19795;53.160;6.612;2022-11-27T22:37:15;11.20;;;9.82;;
33459;SDS011;19795;53.160;6.612;2022-11-27T22:39:42;12.30;;;9.43;;
33459;SDS011;19795;53.160;6.612;2022-11-27T22:42:08;11.27;;;9.65;;
33459;SDS011;19795;53.160;6.612;2022-11-27T22:44:35;11.32;;;9.27;;